createdAt,value
2022-12-31T00:01:51.256Z,2.78
2022-12-31T00:04:19.332Z,1.77
2022-12-31T00:06:47.259Z,3.28
2022-12-31T00:09:15.166Z,3.88
2022-12-31T00:11:43.104Z,2.85
2022-12-31T00:14:12.325Z,3.47
2022-12-31T00:16:42.471Z,2.85
2022-12-31T00:19:12.973Z,2.75
2022-12-31T00:21:41.406Z,2.58
2022-12-31T00:24:09.781Z,2.30
2022-12-31T00:26:37.700Z,1.88
2022-12-31T00:29:06.535Z,1.95
2022-12-31T00:31:38.881Z,3.08
2022-12-31T00:34:07.620Z,2.20
2022-12-31T00:36:37.273Z,2.15
2022-12-31T00:39:06.851Z,2.83
2022-12-31T00:41:35.075Z,2.53
2022-12-31T00:44:03.143Z,2.50
2022-12-31T00:46:31.844Z,2.35
2022-12-31T00:49:01.141Z,2.25
2022-12-31T00:51:29.212Z,3.45
2022-12-31T00:53:58.341Z,3.80
2022-12-31T00:56:30.280Z,1.83
2022-12-31T00:58:59.155Z,4.88
2022-12-31T01:01:29.394Z,2.40
2022-12-31T01:04:00.118Z,3.35
2022-12-31T01:06:29.537Z,1.45
2022-12-31T01:08:57.436Z,2.38
2022-12-31T01:11:29.224Z,1.67
2022-12-31T01:13:59.682Z,1.50
2022-12-31T01:16:29.265Z,2.05
2022-12-31T01:18:59.509Z,4.30
2022-12-31T01:21:29.174Z,1.83
2022-12-31T01:23:57.066Z,1.20
2022-12-31T01:26:24.964Z,1.73
2022-12-31T01:28:53.135Z,0.88
2022-12-31T01:31:22.589Z,1.00
2022-12-31T01:33:51.784Z,0.95
2022-12-31T01:36:25.672Z,1.50
2022-12-31T01:38:56.338Z,2.33
2022-12-31T01:41:27.667Z,0.77
2022-12-31T01:43:58.656Z,0.25
2022-12-31T01:46:32.251Z,0.90
2022-12-31T01:49:02.864Z,0.68
2022-12-31T01:51:34.379Z,0.95
2022-12-31T01:54:06.955Z,0.63
2022-12-31T01:56:36.089Z,1.00
2022-12-31T01:59:07.578Z,0.65
2022-12-31T02:01:38.897Z,0.45
2022-12-31T02:04:10.681Z,0.93
2022-12-31T02:06:42.928Z,0.20
2022-12-31T02:09:13.148Z,0.50
2022-12-31T02:11:41.306Z,1.15
2022-12-31T02:14:13.021Z,4.38
2022-12-31T02:16:50.052Z,0.57
2022-12-31T02:19:45.470Z,2.55
2022-12-31T02:22:24.648Z,0.60
2022-12-31T02:25:10.270Z,0.32
2022-12-31T02:27:52.217Z,0.40
2022-12-31T02:30:23.918Z,0.85
2022-12-31T02:33:00.833Z,0.20
2022-12-31T02:35:34.695Z,1.00
2022-12-31T02:38:08.786Z,0.40
2022-12-31T02:40:39.248Z,0.22
2022-12-31T02:43:07.303Z,0.40
2022-12-31T02:45:39.732Z,0.77
2022-12-31T02:48:22.690Z,0.90
2022-12-31T02:51:01.223Z,2.97
2022-12-31T02:54:03.477Z,0.50
2022-12-31T02:56:42.994Z,0.90
2022-12-31T02:59:34.989Z,0.88
2022-12-31T03:02:16.017Z,0.15
2022-12-31T03:04:46.855Z,0.93
2022-12-31T03:07:19.676Z,1.17
2022-12-31T03:09:47.751Z,0.45
2022-12-31T03:12:34.261Z,0.60
2022-12-31T03:15:06.608Z,0.40
2022-12-31T03:17:35.961Z,1.87
2022-12-31T03:20:21.975Z,0.93
2022-12-31T03:22:49.902Z,0.75
2022-12-31T03:25:34.138Z,0.90
2022-12-31T03:28:03.530Z,0.65
2022-12-31T03:30:32.937Z,0.60
2022-12-31T03:33:03.005Z,1.58
2022-12-31T03:35:33.776Z,0.70
2022-12-31T03:38:02.443Z,1.88
2022-12-31T03:40:31.858Z,0.88
2022-12-31T03:42:59.726Z,0.98
2022-12-31T03:45:27.842Z,0.73
2022-12-31T03:47:55.797Z,0.95
2022-12-31T03:50:25.024Z,0.95
2022-12-31T03:52:53.043Z,2.10
2022-12-31T03:55:20.929Z,2.28
2022-12-31T03:57:48.875Z,1.85
2022-12-31T04:00:19.159Z,1.08
2022-12-31T04:02:47.464Z,0.63
2022-12-31T04:05:16.782Z,1.08
2022-12-31T04:07:46.243Z,1.00
2022-12-31T04:10:16.754Z,1.48
2022-12-31T04:12:44.794Z,1.77
2022-12-31T04:15:17.160Z,1.92
2022-12-31T04:17:45.102Z,3.83
2022-12-31T04:20:13.472Z,1.98
2022-12-31T04:22:41.544Z,0.73
2022-12-31T04:25:11.894Z,1.45
2022-12-31T04:27:40.450Z,0.55
2022-12-31T04:30:12.206Z,0.45
2022-12-31T04:32:40.209Z,1.60
2022-12-31T04:35:09.723Z,0.60
2022-12-31T04:37:37.663Z,0.75
2022-12-31T04:40:07.098Z,0.93
2022-12-31T04:42:37.039Z,0.70
2022-12-31T04:45:06.068Z,1.20
2022-12-31T04:47:34.066Z,1.25
2022-12-31T04:50:01.942Z,1.23
2022-12-31T04:52:29.823Z,0.20
2022-12-31T04:54:57.689Z,1.02
2022-12-31T04:57:25.631Z,0.63
2022-12-31T04:59:54.867Z,0.30
2022-12-31T05:02:22.911Z,0.30
2022-12-31T05:04:51.012Z,0.50
2022-12-31T05:07:18.963Z,1.80
2022-12-31T05:09:46.854Z,1.38
2022-12-31T05:12:14.732Z,0.32
2022-12-31T05:14:42.633Z,0.30
2022-12-31T05:17:11.932Z,0.60
2022-12-31T05:19:39.821Z,0.25
2022-12-31T05:22:25.000Z,0.88
2022-12-31T05:24:53.140Z,0.20
2022-12-31T05:27:21.127Z,0.95
2022-12-31T05:29:48.976Z,0.82
2022-12-31T05:32:18.442Z,0.82
2022-12-31T05:34:46.382Z,0.85
2022-12-31T05:37:14.243Z,1.38
2022-12-31T05:39:42.120Z,0.93
2022-12-31T05:42:10.026Z,2.10
2022-12-31T05:44:37.878Z,0.57
2022-12-31T05:47:05.963Z,0.82
2022-12-31T05:49:35.198Z,0.57
2022-12-31T05:52:03.097Z,0.52
2022-12-31T05:54:30.988Z,0.98
2022-12-31T05:56:58.838Z,0.40
2022-12-31T05:59:26.709Z,0.40
2022-12-31T06:01:54.590Z,1.67
2022-12-31T06:04:22.529Z,0.70
2022-12-31T06:06:51.822Z,1.48
2022-12-31T06:09:20.446Z,1.00
2022-12-31T06:11:48.735Z,1.15
2022-12-31T06:14:17.225Z,0.40
2022-12-31T06:16:45.116Z,0.73
2022-12-31T06:19:12.985Z,0.73
2022-12-31T06:21:40.875Z,0.55
2022-12-31T06:24:10.394Z,1.17
2022-12-31T06:26:38.714Z,3.03
2022-12-31T06:29:06.696Z,2.35
2022-12-31T06:31:34.706Z,0.70
2022-12-31T06:34:02.590Z,0.80
2022-12-31T06:36:30.697Z,0.40
2022-12-31T06:39:00.435Z,0.90
2022-12-31T06:41:29.704Z,1.85
2022-12-31T06:43:57.639Z,0.45
2022-12-31T06:46:27.140Z,0.60
2022-12-31T06:48:55.001Z,1.33
2022-12-31T06:51:23.741Z,0.47
2022-12-31T06:53:52.537Z,0.30
2022-12-31T06:56:25.250Z,0.80
2022-12-31T06:58:57.900Z,0.75
2022-12-31T07:01:38.135Z,2.03
2022-12-31T07:04:33.119Z,0.50
2022-12-31T07:07:08.324Z,0.93
2022-12-31T07:09:45.919Z,1.65
2022-12-31T07:12:37.352Z,0.73
2022-12-31T07:15:14.384Z,0.65
2022-12-31T07:17:50.657Z,0.30
2022-12-31T07:20:19.792Z,0.70
2022-12-31T07:22:48.335Z,0.50
2022-12-31T07:25:17.980Z,0.35
2022-12-31T07:28:09.667Z,0.40
2022-12-31T07:30:47.539Z,2.60
2022-12-31T07:33:36.773Z,0.40
2022-12-31T07:36:16.279Z,0.50
2022-12-31T07:38:57.691Z,0.35
2022-12-31T07:41:42.117Z,0.47
2022-12-31T07:44:26.259Z,0.40
2022-12-31T07:46:58.244Z,0.22
2022-12-31T07:49:28.395Z,0.30
2022-12-31T07:51:57.031Z,0.45
2022-12-31T07:54:24.996Z,0.20
2022-12-31T07:56:53.138Z,1.05
2022-12-31T07:59:37.866Z,0.32
2022-12-31T08:02:15.169Z,1.02
2022-12-31T08:04:55.387Z,0.30
2022-12-31T08:07:35.329Z,1.00
2022-12-31T08:10:17.290Z,0.68
2022-12-31T08:12:48.171Z,0.68
2022-12-31T08:15:17.975Z,1.30
2022-12-31T08:17:47.743Z,1.15
2022-12-31T08:20:16.907Z,0.43
2022-12-31T08:23:23.279Z,0.82
2022-12-31T08:26:06.261Z,0.35
2022-12-31T08:28:52.080Z,0.30
2022-12-31T08:31:23.888Z,0.73
2022-12-31T08:34:05.362Z,2.08
2022-12-31T08:36:45.554Z,0.28
2022-12-31T08:39:22.998Z,0.22
2022-12-31T08:41:54.558Z,0.43
2022-12-31T08:44:30.927Z,0.70
2022-12-31T08:47:07.591Z,0.60
2022-12-31T08:49:37.285Z,0.90
2022-12-31T08:52:05.744Z,1.02
2022-12-31T08:54:34.172Z,0.40
2022-12-31T08:57:07.958Z,0.47
2022-12-31T08:59:45.735Z,1.77
2022-12-31T09:02:48.197Z,0.90
2022-12-31T09:05:25.396Z,0.77
2022-12-31T09:08:10.238Z,1.27
2022-12-31T09:10:45.378Z,2.38
2022-12-31T09:13:22.565Z,0.98
2022-12-31T09:15:59.491Z,0.50
2022-12-31T09:18:32.933Z,3.88
2022-12-31T09:21:03.073Z,0.80
2022-12-31T09:23:31.520Z,1.20
2022-12-31T09:26:06.131Z,0.75
2022-12-31T09:28:43.259Z,1.42
2022-12-31T09:31:17.584Z,2.05
2022-12-31T09:33:52.795Z,6.32
2022-12-31T09:36:31.348Z,1.88
2022-12-31T09:39:08.882Z,1.65
2022-12-31T09:42:09.607Z,1.08
2022-12-31T09:45:08.067Z,0.40
2022-12-31T09:48:02.693Z,1.45
2022-12-31T09:50:45.306Z,1.65
2022-12-31T09:53:42.869Z,0.98
2022-12-31T09:56:21.906Z,1.67
2022-12-31T09:59:02.541Z,2.90
2022-12-31T10:01:43.739Z,0.98
2022-12-31T10:04:41.386Z,0.75
2022-12-31T10:07:21.780Z,1.75
2022-12-31T10:10:02.189Z,0.82
2022-12-31T10:12:46.873Z,1.00
2022-12-31T10:15:41.406Z,1.20
2022-12-31T10:18:24.618Z,5.20
2022-12-31T10:21:05.025Z,2.55
2022-12-31T10:23:55.209Z,1.77
2022-12-31T10:26:33.256Z,1.58
2022-12-31T10:29:16.087Z,0.65
2022-12-31T10:31:52.029Z,1.73
2022-12-31T10:34:27.440Z,0.65
2022-12-31T10:36:59.105Z,0.85
2022-12-31T10:39:39.843Z,1.38
2022-12-31T10:42:32.435Z,0.77
2022-12-31T10:45:32.139Z,2.17
2022-12-31T10:48:47.700Z,3.95
2022-12-31T10:51:42.828Z,0.70
2022-12-31T10:54:55.696Z,0.75
2022-12-31T10:57:43.477Z,1.27
2022-12-31T11:00:21.111Z,0.88
2022-12-31T11:03:29.228Z,1.02
2022-12-31T11:06:34.898Z,1.00
2022-12-31T11:09:48.496Z,0.35
2022-12-31T11:12:43.701Z,1.57
2022-12-31T11:15:38.549Z,0.80
2022-12-31T11:18:18.207Z,1.60
2022-12-31T11:21:04.481Z,1.73
2022-12-31T11:23:42.364Z,2.83
2022-12-31T11:26:21.723Z,6.07
2022-12-31T11:29:08.749Z,1.30
2022-12-31T11:32:08.981Z,5.53
2022-12-31T11:34:59.881Z,1.20
2022-12-31T11:37:38.479Z,1.35
2022-12-31T11:40:22.100Z,2.38
2022-12-31T11:45:45.645Z,1.48
2022-12-31T11:48:31.982Z,1.05
2022-12-31T11:51:16.520Z,2.55
2022-12-31T11:54:05.220Z,1.00
2022-12-31T11:56:36.619Z,2.63
2022-12-31T11:59:15.697Z,1.77
2022-12-31T12:01:54.658Z,0.93
2022-12-31T12:04:22.717Z,1.55
2022-12-31T12:06:53.401Z,1.10
2022-12-31T12:09:28.721Z,1.20
2022-12-31T12:12:00.821Z,1.45
2022-12-31T12:14:33.313Z,0.35
2022-12-31T12:17:05.117Z,1.30
2022-12-31T12:19:34.904Z,1.60
2022-12-31T12:22:13.252Z,1.60
2022-12-31T12:24:41.615Z,1.38
2022-12-31T12:27:22.966Z,4.47
2022-12-31T12:29:51.107Z,1.52
2022-12-31T12:32:21.057Z,1.25
2022-12-31T12:34:50.237Z,0.73
2022-12-31T12:37:29.084Z,0.88
2022-12-31T12:39:58.535Z,1.88
2022-12-31T12:42:26.476Z,1.60
2022-12-31T12:45:05.713Z,1.35
2022-12-31T12:47:34.607Z,1.60
2022-12-31T12:50:02.537Z,2.20
2022-12-31T12:52:59.039Z,3.38
2022-12-31T12:55:41.018Z,1.40
2022-12-31T12:58:19.656Z,2.20
2022-12-31T13:00:54.809Z,1.02
2022-12-31T13:04:33.627Z,1.13
2022-12-31T13:07:09.277Z,3.03
2022-12-31T13:09:56.864Z,1.00
2022-12-31T13:12:48.879Z,1.50
2022-12-31T13:15:23.325Z,1.40
2022-12-31T13:18:02.378Z,2.53
2022-12-31T13:20:40.152Z,1.73
2022-12-31T13:23:17.346Z,0.57
2022-12-31T13:25:59.810Z,2.08
2022-12-31T13:28:28.969Z,5.32
2022-12-31T13:31:06.487Z,1.05
2022-12-31T13:33:40.207Z,1.17
2022-12-31T13:38:41.661Z,2.55
2022-12-31T13:41:16.040Z,1.65
2022-12-31T13:43:51.286Z,2.83
2022-12-31T13:46:26.950Z,1.00
2022-12-31T13:48:58.244Z,1.73
2022-12-31T13:51:44.251Z,1.67
2022-12-31T13:54:25.562Z,1.40
2022-12-31T13:56:56.883Z,1.95
2022-12-31T13:59:30.619Z,2.30
2022-12-31T14:02:04.607Z,2.05
2022-12-31T14:04:37.383Z,2.83
2022-12-31T14:07:10.991Z,1.87
2022-12-31T14:09:39.104Z,0.77
2022-12-31T14:12:29.038Z,1.25
2022-12-31T14:15:07.468Z,1.85
2022-12-31T14:17:43.489Z,3.38
2022-12-31T14:20:24.132Z,1.73
2022-12-31T14:23:00.128Z,1.67
2022-12-31T14:25:35.163Z,1.75
2022-12-31T14:28:10.746Z,2.55
2022-12-31T14:30:42.227Z,1.83
2022-12-31T14:33:19.867Z,1.98
2022-12-31T14:36:04.005Z,2.30
2022-12-31T14:38:48.611Z,1.63
2022-12-31T14:41:28.960Z,1.63
2022-12-31T14:44:11.962Z,1.58
2022-12-31T14:46:52.886Z,2.13
2022-12-31T14:49:40.803Z,2.13
2022-12-31T14:52:10.477Z,2.38
2022-12-31T14:54:39.338Z,2.22
2022-12-31T14:57:25.564Z,1.42
2022-12-31T14:59:57.634Z,1.80
2022-12-31T15:02:31.857Z,5.78
2022-12-31T15:05:17.220Z,3.38
2022-12-31T15:08:02.863Z,2.55
2022-12-31T15:10:41.781Z,2.17
2022-12-31T15:13:26.038Z,4.70
2022-12-31T15:16:09.859Z,3.92
2022-12-31T15:18:54.815Z,2.28
2022-12-31T15:21:47.081Z,2.65
2022-12-31T15:24:20.623Z,5.43
2022-12-31T15:26:52.288Z,2.63
2022-12-31T15:29:29.111Z,2.65
2022-12-31T15:32:03.934Z,4.15
2022-12-31T15:34:34.880Z,3.60
2022-12-31T15:37:05.341Z,3.05
2022-12-31T15:39:45.785Z,2.80
2022-12-31T15:42:45.759Z,6.75
2022-12-31T15:45:22.434Z,7.68
2022-12-31T15:47:56.076Z,3.67
2022-12-31T15:50:28.797Z,3.67
2022-12-31T15:53:02.371Z,3.60
2022-12-31T15:55:38.593Z,2.45
2022-12-31T15:58:12.909Z,3.55
2022-12-31T16:00:57.208Z,3.83
2022-12-31T16:03:30.245Z,3.45
2022-12-31T16:06:02.102Z,3.50
2022-12-31T16:08:32.953Z,5.38
2022-12-31T16:11:01.642Z,3.90
2022-12-31T16:13:31.224Z,6.28
2022-12-31T16:16:03.175Z,3.03
2022-12-31T16:18:40.173Z,8.07
2022-12-31T16:21:23.521Z,9.35
2022-12-31T16:23:52.350Z,4.47
2022-12-31T16:26:20.394Z,6.70
2022-12-31T16:28:49.863Z,7.22
2022-12-31T16:31:19.731Z,6.10
2022-12-31T16:33:49.380Z,7.20
2022-12-31T16:36:21.364Z,5.40
2022-12-31T16:38:49.425Z,9.50
2022-12-31T16:41:19.379Z,10.43
2022-12-31T16:43:49.775Z,7.40
2022-12-31T16:46:21.645Z,5.57
2022-12-31T16:48:54.650Z,5.60
2022-12-31T16:51:25.977Z,4.28
2022-12-31T16:53:54.358Z,5.60
2022-12-31T16:56:27.334Z,7.32
2022-12-31T16:59:01.722Z,7.43
2022-12-31T17:01:33.549Z,7.00
2022-12-31T17:04:05.723Z,6.07
2022-12-31T17:06:33.880Z,18.65
2022-12-31T17:09:18.620Z,8.82
2022-12-31T17:11:52.733Z,7.07
2022-12-31T17:14:23.784Z,14.07
2022-12-31T17:17:03.242Z,8.77
2022-12-31T17:19:42.847Z,6.25
2022-12-31T17:22:17.566Z,5.22
2022-12-31T17:24:49.428Z,6.38
2022-12-31T17:27:17.716Z,10.48
2022-12-31T17:29:45.583Z,5.22
2022-12-31T17:32:30.036Z,4.15
2022-12-31T17:34:59.331Z,9.43
2022-12-31T17:37:28.933Z,7.68
2022-12-31T17:40:24.510Z,7.13
2022-12-31T17:42:49.471Z,7.95
2022-12-31T17:45:22.025Z,5.78
2022-12-31T17:47:53.728Z,5.38
2022-12-31T17:50:25.483Z,8.90
2022-12-31T17:52:56.940Z,9.68
2022-12-31T17:55:24.940Z,11.25
2022-12-31T17:57:55.013Z,4.70
2022-12-31T18:00:25.172Z,7.63
2022-12-31T18:02:53.387Z,6.70
2022-12-31T18:05:25.264Z,10.15
2022-12-31T18:07:54.161Z,6.72
2022-12-31T18:10:24.948Z,5.20
2022-12-31T18:12:53.139Z,6.28
2022-12-31T18:15:22.977Z,6.35
2022-12-31T18:17:51.793Z,6.93
2022-12-31T18:20:20.064Z,4.68
2022-12-31T18:22:49.700Z,6.07
2022-12-31T18:25:20.504Z,4.50
2022-12-31T18:27:48.983Z,4.00
2022-12-31T18:30:17.727Z,5.40
2022-12-31T18:32:46.432Z,5.63
2022-12-31T18:35:48.648Z,8.15
2022-12-31T18:38:13.203Z,6.18
2022-12-31T18:40:44.287Z,6.43
2022-12-31T18:43:16.563Z,8.30
2022-12-31T18:45:44.926Z,5.32
2022-12-31T18:48:13.498Z,7.75
2022-12-31T18:50:42.059Z,6.43
2022-12-31T18:53:16.520Z,5.53
2022-12-31T18:55:48.602Z,6.53
2022-12-31T18:58:16.789Z,4.30
2022-12-31T19:00:45.767Z,4.18
2022-12-31T19:03:18.181Z,9.00
2022-12-31T19:05:49.584Z,10.07
2022-12-31T19:08:19.097Z,13.73
2022-12-31T19:10:47.201Z,20.40
2022-12-31T19:13:16.624Z,20.83
2022-12-31T19:15:47.527Z,12.32
2022-12-31T19:18:15.427Z,14.65
2022-12-31T19:20:43.314Z,13.10
2022-12-31T19:23:16.396Z,10.07
2022-12-31T19:25:47.158Z,13.10
2022-12-31T19:28:18.034Z,11.05
2022-12-31T19:30:46.040Z,8.20
2022-12-31T19:33:14.026Z,88.15
2022-12-31T19:35:42.556Z,14.30
2022-12-31T19:38:19.123Z,12.60
2022-12-31T19:40:49.248Z,23.75
2022-12-31T19:43:19.283Z,36.92
2022-12-31T19:45:47.939Z,66.28
2022-12-31T19:48:18.735Z,43.25
2022-12-31T19:50:48.169Z,23.92
2022-12-31T19:53:18.850Z,9.95
2022-12-31T19:55:48.955Z,11.80
2022-12-31T19:58:19.367Z,7.25
2022-12-31T20:00:54.590Z,7.50
2022-12-31T20:03:25.181Z,7.20
2022-12-31T20:06:02.305Z,8.10
2022-12-31T20:08:30.156Z,9.65
2022-12-31T20:11:00.094Z,8.93
2022-12-31T20:13:28.115Z,11.70
2022-12-31T20:15:56.084Z,9.75
2022-12-31T20:18:23.925Z,8.85
2022-12-31T20:20:55.751Z,7.82
2022-12-31T20:23:24.057Z,7.05
2022-12-31T20:25:59.851Z,9.50
2022-12-31T20:28:28.021Z,10.25
2022-12-31T20:30:56.029Z,16.42
2022-12-31T20:33:24.300Z,10.23
2022-12-31T20:35:52.401Z,23.25
2022-12-31T20:38:20.398Z,11.73
2022-12-31T20:40:48.258Z,17.00
2022-12-31T20:43:17.510Z,8.95
2022-12-31T20:45:45.443Z,6.45
2022-12-31T20:48:13.454Z,10.30
2022-12-31T20:50:41.306Z,9.80
2022-12-31T20:53:09.152Z,8.43
2022-12-31T20:55:38.771Z,6.18
2022-12-31T20:58:06.634Z,8.57
2022-12-31T21:00:35.871Z,14.82
2022-12-31T21:03:14.446Z,12.00
2022-12-31T21:05:53.095Z,13.55
2022-12-31T21:08:22.087Z,17.63
2022-12-31T21:10:50.965Z,16.20
2022-12-31T21:13:21.620Z,9.60
2022-12-31T21:15:50.904Z,10.63
2022-12-31T21:18:19.063Z,9.20
2022-12-31T21:20:48.033Z,10.45
2022-12-31T21:23:16.327Z,12.95
2022-12-31T21:25:45.434Z,15.23
2022-12-31T21:28:14.061Z,12.48
2022-12-31T21:30:42.969Z,11.82
2022-12-31T21:33:12.258Z,14.20
2022-12-31T21:35:44.547Z,8.18
2022-12-31T21:38:16.480Z,8.43
2022-12-31T21:40:45.013Z,9.65
2022-12-31T21:43:13.264Z,6.95
2022-12-31T21:45:41.395Z,12.27
2022-12-31T21:48:23.459Z,9.18
2022-12-31T21:50:53.090Z,9.25
2022-12-31T21:53:26.355Z,10.73
2022-12-31T21:56:09.832Z,7.97
2022-12-31T21:58:38.316Z,9.18
2022-12-31T22:01:24.697Z,7.97
2022-12-31T22:03:54.023Z,5.05
2022-12-31T22:06:23.693Z,15.77
2022-12-31T22:08:53.189Z,11.52
2022-12-31T22:11:23.803Z,7.45
2022-12-31T22:13:52.425Z,10.88
2022-12-31T22:16:21.512Z,54.13
2022-12-31T22:18:50.033Z,12.77
2022-12-31T22:21:20.866Z,8.95
2022-12-31T22:23:50.434Z,9.43
2022-12-31T22:26:19.737Z,14.98
2022-12-31T22:28:47.801Z,6.80
2022-12-31T22:31:17.887Z,7.35
2022-12-31T22:33:46.522Z,12.48
2022-12-31T22:36:16.653Z,6.38
2022-12-31T22:38:46.145Z,8.60
2022-12-31T22:41:16.080Z,10.95
2022-12-31T22:43:46.019Z,6.15
2022-12-31T22:46:15.896Z,8.90
2022-12-31T22:48:43.966Z,6.47
2022-12-31T22:51:16.542Z,6.82
2022-12-31T22:53:46.308Z,8.33
2022-12-31T22:56:16.150Z,12.05
2022-12-31T22:58:44.798Z,17.35
2022-12-31T23:01:18.274Z,15.80
2022-12-31T23:03:46.544Z,34.13
2022-12-31T23:06:15.198Z,64.45
2022-12-31T23:09:03.116Z,55.83
2022-12-31T23:11:36.017Z,82.25
2022-12-31T23:14:21.829Z,86.75
2022-12-31T23:17:31.589Z,95.18
2022-12-31T23:20:12.484Z,107.35
2022-12-31T23:22:57.851Z,94.57
2022-12-31T23:25:25.758Z,108.75
2022-12-31T23:27:55.016Z,108.35
2022-12-31T23:30:22.853Z,86.28
2022-12-31T23:32:50.748Z,100.20
2022-12-31T23:35:18.712Z,75.55
2022-12-31T23:37:46.654Z,58.20
2022-12-31T23:40:20.995Z,62.65
2022-12-31T23:42:49.364Z,71.82
2022-12-31T23:45:18.781Z,66.68
2022-12-31T23:47:46.712Z,49.05
2022-12-31T23:50:14.631Z,53.05
2022-12-31T23:52:42.522Z,43.17
2022-12-31T23:55:10.636Z,45.05
2022-12-31T23:57:38.526Z,48.47
